Time;durP1;ratioP1;P1;durP2;ratioP2;P2;SDS_P1;SDS_P2;PMS_P1;PMS_P2;Temp;Humidity;BMP_temperature;BMP_pressure;BME280_temperature;BME280_humidity;BME280_pressure;Samples;Min_cycle;Max_cycle;Signal;HPM_P1;HPM_P2
2022/10/18 00:03:53;;;;;;;;;;;;;;;;;;13011664;22;19910;-73
2022/10/18 00:08:54;;;;;;;;;;;;;;;;;;13040103;22;20295;-75
2022/10/18 00:13:56;;;;;;;;;;;;;;;;;;13011960;22;20039;-73
2022/10/18 00:18:56;;;;;;;;;;;;;;;;;;13011325;22;19965;-72
2022/10/18 00:23:56;;;;;;;;;;;;;;;;;;13039285;22;19960;-74
2022/10/18 00:28:56;;;;;;;;;;;;;;;;;;13012475;22;19925;-74
2022/10/18 00:33:58;;;;;;;;;;;;;;;;;;13039181;22;19913;-74
2022/10/18 00:38:58;;;;;;;;;;;;;;;;;;13038893;22;19910;-73
2022/10/18 00:43:59;;;;;;;;;;;;;;;;;;13013920;22;19915;-73
2022/10/18 00:48:59;;;;;;;;;;;;;;;;;;13013451;22;20288;-73
2022/10/18 00:53:59;;;;;;;;;;;;;;;;;;13015975;22;20447;-74
2022/10/18 00:59:00;;;;;;;;;;;;;;;;;;13017481;22;20323;-74
2022/10/18 01:04:02;;;;;;;;;;;;;;;;;;13042548;22;19929;-72
2022/10/18 01:09:02;;;;;;;;;;;;;;;;;;13014536;22;19966;-73
2022/10/18 01:14:02;;;;;;;;;;;;;;;;;;12989204;22;19919;-74
2022/10/18 01:19:05;;;;;;;;;;;;;;;;;;13042115;22;20212;-74
2022/10/18 01:24:05;;;;;;;;;;;;;;;;;;13041631;22;19986;-72
2022/10/18 01:29:06;;;;;;;;;;;;;;;;;;13038111;22;19958;-74
2022/10/18 01:34:08;;;;;;;;;;;;;;;;;;13041596;22;19922;-74
2022/10/18 01:39:09;;;;;;;;;;;;;;;;;;13014154;22;19918;-73
2022/10/18 01:44:09;;;;;;;;;;;;;;;;;;12987805;22;19964;-72
2022/10/18 01:49:14;;;;;;;;;;;;;;;;;;12987948;22;19926;-74
2022/10/18 01:54:15;;;;;;;;;;;;;;;;;;13040736;22;19929;-73
2022/10/18 01:59:16;;;;;;;;;;;;;;;;;;13013993;22;19915;-73
2022/10/18 02:04:16;;;;;;;;;;;;;;;;;;13041586;22;20014;-73
2022/10/18 02:09:16;;;;;;;;;;;;;;;;;;12987763;22;19922;-73
2022/10/18 02:14:17;;;;;;;;;;;;;;;;;;13013092;22;19945;-73
2022/10/18 02:19:17;;;;;;;;;;;;;;;;;;13013459;22;20248;-73
2022/10/18 02:24:17;;;;;;;;;;;;;;;;;;13012875;22;20335;-73
2022/10/18 02:29:17;;;;;;;;;;;;;;;;;;13040749;22;19930;-72
2022/10/18 02:34:18;;;;;;;;;;;;;;;;;;13040484;22;19990;-73
2022/10/18 02:39:18;;;;;;;;;;;;;;;;;;13041232;22;19927;-74
2022/10/18 02:44:18;;;;;;;;;;;;;;;;;;13040455;22;19911;-73
2022/10/18 02:49:18;;;;;;;;;;;;;;;;;;12987169;22;19915;-73
2022/10/18 02:54:19;;;;;;;;;;;;;;;;;;12986832;22;19911;-74
2022/10/18 02:59:19;;;;;;;;;;;;;;;;;;13012558;22;19910;-73
2022/10/18 03:04:19;;;;;;;;;;;;;;;;;;13012037;22;19910;-74
2022/10/18 03:09:20;;;;;;;;;;;;;;;;;;13012551;22;19956;-74
2022/10/18 03:14:20;;;;;;;;;;;;;;;;;;13012163;22;20188;-74
2022/10/18 03:19:21;;;;;;;;;;;;;;;;;;13011724;22;19949;-73
2022/10/18 03:24:23;;;;;;;;;;;;;;;;;;13037627;22;19922;-72
2022/10/18 03:29:23;;;;;;;;;;;;;;;;;;13039129;22;20255;-74
2022/10/18 03:34:23;;;;;;;;;;;;;;;;;;13011228;22;20319;-73
2022/10/18 03:39:23;;;;;;;;;;;;;;;;;;13039298;22;20341;-74
2022/10/18 03:44:24;;;;;;;;;;;;;;;;;;13012482;22;20312;-75
2022/10/18 03:49:24;;;;;;;;;;;;;;;;;;13011328;22;20349;-73
2022/10/18 03:54:24;;;;;;;;;;;;;;;;;;12985718;22;19914;-73
2022/10/18 03:59:25;;;;;;;;;;;;;;;;;;13039243;22;19917;-73
2022/10/18 04:04:25;;;;;;;;;;;;;;;;;;13011408;22;19917;-74
2022/10/18 04:09:27;;;;;;;;;;;;;;;;;;12986397;22;19950;-73
2022/10/18 04:14:27;;;;;;;;;;;;;;;;;;13011643;22;19911;-73
2022/10/18 04:19:27;;;;;;;;;;;;;;;;;;13014452;22;19915;-72
2022/10/18 04:24:31;;;;;;;;;;;;;;;;;;13017040;22;19921;-74
2022/10/18 04:29:31;;;;;;;;;;;;;;;;;;12999328;22;19946;-73
2022/10/18 04:34:31;;;;;;;;;;;;;;;;;;13021029;22;19972;-72
2022/10/18 04:39:37;;;;;;;;;;;;;;;;;;13043248;22;19999;-73
2022/10/18 04:44:37;;;;;;;;;;;;;;;;;;13042637;22;19972;-72
2022/10/18 04:49:40;;;;;;;;;;;;;;;;;;13014562;22;19938;-72
2022/10/18 04:54:40;;;;;;;;;;;;;;;;;;12987956;22;19928;-74
2022/10/18 04:59:41;;;;;;;;;;;;;;;;;;13042082;22;20472;-74
2022/10/18 05:04:41;;;;;;;;;;;;;;;;;;13014438;22;19911;-74
2022/10/18 05:09:41;;;;;;;;;;;;;;;;;;13040826;22;19918;-73
2022/10/18 05:14:41;;;;;;;;;;;;;;;;;;13013554;22;19946;-73
2022/10/18 05:19:42;;;;;;;;;;;;;;;;;;12988627;22;19911;-73
2022/10/18 05:24:42;;;;;;;;;;;;;;;;;;12987013;22;19934;-74
2022/10/18 05:29:42;;;;;;;;;;;;;;;;;;12984792;22;20343;-73
2022/10/18 05:34:43;;;;;;;;;;;;;;;;;;13010290;22;20605;-71
2022/10/18 05:39:43;;;;;;;;;;;;;;;;;;13012086;22;19917;-73
2022/10/18 05:44:44;;;;;;;;;;;;;;;;;;13011108;22;19918;-72
2022/10/18 05:49:44;;;;;;;;;;;;;;;;;;13012957;22;20320;-74
2022/10/18 05:54:45;;;;;;;;;;;;;;;;;;13039197;22;19918;-74
2022/10/18 05:59:46;;;;;;;;;;;;;;;;;;13038319;22;19914;-72
2022/10/18 06:04:48;;;;;;;;;;;;;;;;;;13010205;22;19915;-72
2022/10/18 06:09:48;;;;;;;;;;;;;;;;;;13010626;22;19954;-72
2022/10/18 06:14:50;;;;;;;;;;;;;;;;;;12986070;22;19946;-71
2022/10/18 06:19:50;;;;;;;;;;;;;;;;;;12982709;22;19911;-72
2022/10/18 06:28:00;;;;;;;;;;;;;;;;;;10631353;27;841639;-75
2022/10/18 06:33:00;;;;;;;;;;;;;;;;;;10655506;27;20247;-75
2022/10/18 06:38:00;;;;;;;;;;;;;;;;;;10682703;27;19919;-73
2022/10/18 06:43:00;;;;;;;;;;;;;;;;;;10696938;27;19919;-73
2022/10/18 06:48:01;;;;;;;;;;;;;;;;;;10685297;27;19930;-73
2022/10/18 06:53:03;;;;;;;;;;;;;;;;;;10665521;27;19919;-73
2022/10/18 06:58:03;;;;;;;;;;;;;;;;;;10704240;27;19919;-74
2022/10/18 07:03:03;;;;;;;;;;;;;;;;;;10704848;27;19919;-73
2022/10/18 07:08:03;;;;;;;;;;;;;;;;;;10696190;27;19987;-73
2022/10/18 07:13:04;;;;;;;;;;;;;;;;;;10696839;27;20361;-73
2022/10/18 07:18:04;;;;;;;;;;;;;;;;;;10688108;27;19920;-74
2022/10/18 07:23:07;;;;;;;;;;;;;;;;;;10688139;27;19930;-74
2022/10/18 07:28:07;;;;;;;;;;;;;;;;;;10669280;27;20384;-73
2022/10/18 07:33:07;;;;;;;;;;;;;;;;;;10687364;27;19926;-72
2022/10/18 07:38:08;;;;;;;;;;;;;;;;;;10670524;27;20078;-72
2022/10/18 07:43:08;;;;;;;;;;;;;;;;;;10669578;27;19919;-72
2022/10/18 07:48:08;;;;;;;;;;;;;;;;;;10672451;27;19923;-74
2022/10/18 07:53:08;;;;;;;;;;;;;;;;;;10656133;27;19926;-74
2022/10/18 07:58:09;;;;;;;;;;;;;;;;;;10664560;27;20331;-74
2022/10/18 08:03:09;;;;;;;;;;;;;;;;;;10634689;27;20235;-73
2022/10/18 08:08:09;;;;;;;;;;;;;;;;;;10661226;27;20015;-74
2022/10/18 08:13:09;;;;;;;;;;;;;;;;;;10670090;27;19919;-74
2022/10/18 08:18:10;;;;;;;;;;;;;;;;;;10659958;27;19926;-74
2022/10/18 08:23:10;;;;;;;;;;;;;;;;;;10667157;27;19926;-74
2022/10/18 08:28:12;;;;;;;;;;;;;;;;;;10663418;27;20699;-75
2022/10/18 08:33:12;;;;;;;;;;;;;;;;;;10665993;27;20378;-74
2022/10/18 08:38:13;;;;;;;;;;;;;;;;;;10645719;27;19919;-73
2022/10/18 08:43:13;;;;;;;;;;;;;;;;;;10646526;27;20341;-74
2022/10/18 08:48:14;;;;;;;;;;;;;;;;;;10656737;27;20093;-74
2022/10/18 08:53:14;;;;;;;;;;;;;;;;;;10646442;27;19925;-74
2022/10/18 08:58:15;;;;;;;;;;;;;;;;;;10647219;27;19925;-75
2022/10/18 09:03:16;;;;;;;;;;;;;;;;;;10662509;27;19937;-76
2022/10/18 09:08:17;;;;;;;;;;;;;;;;;;10681542;27;19962;-74
2022/10/18 09:13:19;;;;;;;;;;;;;;;;;;10663716;27;19925;-73
2022/10/18 09:18:19;;;;;;;;;;;;;;;;;;10654419;27;20013;-74
2022/10/18 09:23:19;;;;;;;;;;;;;;;;;;10664525;27;19925;-73
2022/10/18 09:28:20;;;;;;;;;;;;;;;;;;10647600;27;19923;-73
2022/10/18 09:33:20;;;;;;;;;;;;;;;;;;10670950;27;20366;-74
2022/10/18 09:38:20;;;;;;;;;;;;;;;;;;10663498;27;19919;-75
2022/10/18 09:43:21;;;;;;;;;;;;;;;;;;10666520;27;20006;-72
2022/10/18 09:48:21;;;;;;;;;;;;;;;;;;10667584;27;20375;-75
2022/10/18 09:53:21;;;;;;;;;;;;;;;;;;10660402;27;19925;-74
2022/10/18 09:58:22;;;;;;;;;;;;;;;;;;10650316;27;19972;-74
2022/10/18 10:03:22;;;;;;;;;;;;;;;;;;10666790;27;20039;-73
2022/10/18 10:08:22;;;;;;;;;;;;;;;;;;10666318;27;20322;-74
2022/10/18 10:13:23;;;;;;;;;;;;;;;;;;10659738;27;20376;-74
2022/10/18 10:18:23;;;;;;;;;;;;;;;;;;10640345;27;19925;-74
2022/10/18 10:23:23;;;;;;;;;;;;;;;;;;10634395;27;19919;-74
2022/10/18 10:28:23;;;;;;;;;;;;;;;;;;10664165;27;19923;-74
2022/10/18 10:33:24;;;;;;;;;;;;;;;;;;10647033;27;20566;-74
2022/10/18 10:38:24;;;;;;;;;;;;;;;;;;10644335;27;19973;-75
2022/10/18 10:43:25;;;;;;;;;;;;;;;;;;10649848;27;19919;-73
2022/10/18 10:48:25;;;;;;;;;;;;;;;;;;10656452;27;19930;-74
2022/10/18 10:53:25;;;;;;;;;;;;;;;;;;10653565;27;19931;-74
2022/10/18 10:58:26;;;;;;;;;;;;;;;;;;10658274;27;20326;-73
2022/10/18 11:03:26;;;;;;;;;;;;;;;;;;10660789;27;20246;-74
2022/10/18 11:08:26;;;;;;;;;;;;;;;;;;10642031;27;19930;-74
2022/10/18 11:13:27;;;;;;;;;;;;;;;;;;10672016;27;19915;-74
2022/10/18 11:18:27;;;;;;;;;;;;;;;;;;10645543;27;19919;-76
2022/10/18 11:23:28;;;;;;;;;;;;;;;;;;10672048;27;19933;-75
2022/10/18 11:28:29;;;;;;;;;;;;;;;;;;10645263;27;20014;-74
2022/10/18 11:33:30;;;;;;;;;;;;;;;;;;10633235;27;20048;-75
2022/10/18 11:38:30;;;;;;;;;;;;;;;;;;10667098;27;19919;-75
2022/10/18 11:43:30;;;;;;;;;;;;;;;;;;10671098;27;19933;-78
2022/10/18 11:48:30;;;;;;;;;;;;;;;;;;10676146;27;19919;-76
2022/10/18 11:53:31;;;;;;;;;;;;;;;;;;10672823;27;19919;-74
2022/10/18 11:58:31;;;;;;;;;;;;;;;;;;10674734;27;19983;-75
2022/10/18 12:03:31;;;;;;;;;;;;;;;;;;10654936;27;20684;-76
2022/10/18 12:08:32;;;;;;;;;;;;;;;;;;10652596;27;20271;-75
2022/10/18 12:13:33;;;;;;;;;;;;;;;;;;10672730;27;20331;-75
2022/10/18 12:18:34;;;;;;;;;;;;;;;;;;10653893;27;20007;-74
2022/10/18 12:23:35;;;;;;;;;;;;;;;;;;10638709;27;19978;-75
2022/10/18 12:28:35;;;;;;;;;;;;;;;;;;10673563;27;20359;-75
2022/10/18 12:33:35;;;;;;;;;;;;;;;;;;10674273;27;19919;-76
2022/10/18 12:38:36;;;;;;;;;;;;;;;;;;10679162;27;19987;-76
2022/10/18 12:43:36;;;;;;;;;;;;;;;;;;10655775;27;19927;-76
2022/10/18 12:48:41;;;;;;;;;;;;;;;;;;10671485;27;19926;-75
2022/10/18 12:53:43;;;;;;;;;;;;;;;;;;10656352;27;20373;-75
2022/10/18 12:58:44;;;;;;;;;;;;;;;;;;10655702;27;19954;-75
2022/10/18 13:03:46;;;;;;;;;;;;;;;;;;10637490;27;20045;-76
2022/10/18 13:08:47;;;;;;;;;;;;;;;;;;10654301;27;20036;-76
2022/10/18 13:13:49;;;;;;;;;;;;;;;;;;10664877;27;19919;-75
2022/10/18 13:18:49;;;;;;;;;;;;;;;;;;10652349;27;19988;-75
2022/10/18 13:23:50;;;;;;;;;;;;;;;;;;10656326;27;19927;-75
2022/10/18 13:28:50;;;;;;;;;;;;;;;;;;10663937;27;20373;-74
2022/10/18 13:33:50;;;;;;;;;;;;;;;;;;10657787;27;20441;-74
2022/10/18 13:38:51;;;;;;;;;;;;;;;;;;10669682;27;19925;-75
2022/10/18 13:43:51;;;;;;;;;;;;;;;;;;10647796;27;19995;-75
2022/10/18 13:48:51;;;;;;;;;;;;;;;;;;10678407;27;19914;-75
2022/10/18 13:53:53;;;;;;;;;;;;;;;;;;10652729;27;20334;-75
2022/10/18 13:58:53;;;;;;;;;;;;;;;;;;10663465;27;19925;-75
2022/10/18 14:03:53;;;;;;;;;;;;;;;;;;10666415;27;19954;-75
2022/10/18 14:08:54;;;;;;;;;;;;;;;;;;10642896;27;19947;-75
2022/10/18 14:13:54;;;;;;;;;;;;;;;;;;10664815;27;19919;-73
2022/10/18 14:18:54;;;;;;;;;;;;;;;;;;10666659;27;19915;-75
2022/10/18 14:23:55;;;;;;;;;;;;;;;;;;10673739;27;20400;-74
2022/10/18 14:28:56;;;;;;;;;;;;;;;;;;10648066;27;19964;-75
2022/10/18 14:33:56;;;;;;;;;;;;;;;;;;10684750;27;19923;-75
2022/10/18 14:38:56;;;;;;;;;;;;;;;;;;10666866;27;20014;-75
2022/10/18 14:43:56;;;;;;;;;;;;;;;;;;10641011;27;19930;-74
2022/10/18 14:48:57;;;;;;;;;;;;;;;;;;10652139;27;19987;-75
2022/10/18 14:53:57;;;;;;;;;;;;;;;;;;10637807;27;19919;-74
2022/10/18 14:58:57;;;;;;;;;;;;;;;;;;10678456;27;19970;-76
2022/10/18 15:03:58;;;;;;;;;;;;;;;;;;10652593;27;20381;-75
2022/10/18 15:08:59;;;;;;;;;;;;;;;;;;10662928;27;19923;-77
2022/10/18 15:13:59;;;;;;;;;;;;;;;;;;10676567;27;19919;-74
2022/10/18 15:19:00;;;;;;;;;;;;;;;;;;10680120;27;20646;-74
2022/10/18 15:24:00;;;;;;;;;;;;;;;;;;10681388;27;20022;-76
2022/10/18 15:29:00;;;;;;;;;;;;;;;;;;10679116;27;19971;-75
2022/10/18 15:34:00;;;;;;;;;;;;;;;;;;10670435;27;19923;-74
2022/10/18 15:39:01;;;;;;;;;;;;;;;;;;10673969;27;19929;-73
2022/10/18 15:44:01;;;;;;;;;;;;;;;;;;10680385;27;20017;-75
2022/10/18 15:49:01;;;;;;;;;;;;;;;;;;10661463;27;19918;-75
2022/10/18 15:54:02;;;;;;;;;;;;;;;;;;10676019;27;20667;-74
2022/10/18 15:59:02;;;;;;;;;;;;;;;;;;10640138;27;19978;-75
2022/10/18 16:04:03;;;;;;;;;;;;;;;;;;10663177;27;19957;-76
2022/10/18 16:09:03;;;;;;;;;;;;;;;;;;10658529;27;20374;-75
2022/10/18 16:14:03;;;;;;;;;;;;;;;;;;10668552;27;19918;-76
2022/10/18 16:19:03;;;;;;;;;;;;;;;;;;10649699;27;20387;-78
2022/10/18 16:24:04;;;;;;;;;;;;;;;;;;10663910;27;20282;-77
2022/10/18 16:29:05;;;;;;;;;;;;;;;;;;10643601;27;20430;-75
2022/10/18 16:34:05;;;;;;;;;;;;;;;;;;10661674;27;19915;-75
2022/10/18 16:39:08;;;;;;;;;;;;;;;;;;10634847;27;19971;-76
2022/10/18 16:44:08;;;;;;;;;;;;;;;;;;10656071;27;19998;-75
2022/10/18 16:49:09;;;;;;;;;;;;;;;;;;10665152;27;19922;-74
2022/10/18 16:54:09;;;;;;;;;;;;;;;;;;10643793;27;19919;-76
2022/10/18 16:59:09;;;;;;;;;;;;;;;;;;10655821;27;19930;-74
2022/10/18 17:04:09;;;;;;;;;;;;;;;;;;10664432;27;19923;-74
2022/10/18 17:09:10;;;;;;;;;;;;;;;;;;10642892;27;20396;-75
2022/10/18 17:14:10;;;;;;;;;;;;;;;;;;10650243;27;20014;-75
2022/10/18 17:19:10;;;;;;;;;;;;;;;;;;10644338;27;20381;-74
2022/10/18 17:24:11;;;;;;;;;;;;;;;;;;10663631;27;20058;-73
2022/10/18 17:29:12;;;;;;;;;;;;;;;;;;10658675;27;19923;-76
2022/10/18 17:34:17;;;;;;;;;;;;;;;;;;10670273;27;19973;-76
2022/10/18 17:39:18;;;;;;;;;;;;;;;;;;10647880;27;20335;-75
2022/10/18 17:44:18;;;;;;;;;;;;;;;;;;10647237;27;19933;-76
2022/10/18 17:49:21;;;;;;;;;;;;;;;;;;10634405;27;20358;-76
2022/10/18 17:54:21;;;;;;;;;;;;;;;;;;10669148;27;19925;-77
2022/10/18 17:59:21;;;;;;;;;;;;;;;;;;10651370;27;20443;-76
2022/10/18 18:04:22;;;;;;;;;;;;;;;;;;10655058;27;20018;-75
2022/10/18 18:09:23;;;;;;;;;;;;;;;;;;10646343;27;20062;-77
2022/10/18 18:14:23;;;;;;;;;;;;;;;;;;10671233;27;19919;-78
2022/10/18 18:19:25;;;;;;;;;;;;;;;;;;10674675;27;20371;-76
2022/10/18 18:24:25;;;;;;;;;;;;;;;;;;10670466;27;19927;-76
2022/10/18 18:29:25;;;;;;;;;;;;;;;;;;10667584;27;19919;-76
2022/10/18 18:34:27;;;;;;;;;;;;;;;;;;10690804;27;19938;-77
2022/10/18 18:39:28;;;;;;;;;;;;;;;;;;10656453;27;19925;-75
2022/10/18 18:44:28;;;;;;;;;;;;;;;;;;10656664;27;19937;-76
2022/10/18 18:49:30;;;;;;;;;;;;;;;;;;10658855;27;20045;-75
2022/10/18 18:54:30;;;;;;;;;;;;;;;;;;10655557;27;19943;-76
2022/10/18 18:59:30;;;;;;;;;;;;;;;;;;10649013;27;19926;-77
2022/10/18 19:04:33;;;;;;;;;;;;;;;;;;10650418;27;19923;-78
2022/10/18 19:09:37;;;;;;;;;;;;;;;;;;10638571;27;20761;-78
2022/10/18 19:14:37;;;;;;;;;;;;;;;;;;10681345;27;19958;-77
2022/10/18 19:19:39;;;;;;;;;;;;;;;;;;10656099;27;19989;-77
2022/10/18 19:24:39;;;;;;;;;;;;;;;;;;10675049;27;20543;-76
2022/10/18 19:29:40;;;;;;;;;;;;;;;;;;10661465;27;19983;-78
2022/10/18 19:34:40;;;;;;;;;;;;;;;;;;10643560;27;19923;-76
2022/10/18 19:39:40;;;;;;;;;;;;;;;;;;10670627;27;20379;-75
2022/10/18 19:44:46;;;;;;;;;;;;;;;;;;10629911;27;19934;-77
2022/10/18 19:49:47;;;;;;;;;;;;;;;;;;10673074;27;20129;-77
2022/10/18 19:54:47;;;;;;;;;;;;;;;;;;10653000;27;20022;-77
2022/10/18 19:59:50;;;;;;;;;;;;;;;;;;10676769;27;19922;-76
2022/10/18 20:04:51;;;;;;;;;;;;;;;;;;10670886;27;20393;-77
2022/10/18 20:09:51;;;;;;;;;;;;;;;;;;10653977;27;19923;-78
2022/10/18 20:14:51;;;;;;;;;;;;;;;;;;10656325;27;20279;-78
2022/10/18 20:19:53;;;;;;;;;;;;;;;;;;10669976;27;19919;-76
2022/10/18 20:24:54;;;;;;;;;;;;;;;;;;10638073;27;19926;-77
2022/10/18 20:29:55;;;;;;;;;;;;;;;;;;10676844;27;19933;-78
2022/10/18 20:34:56;;;;;;;;;;;;;;;;;;10677442;27;19919;-78
2022/10/18 20:39:59;;;;;;;;;;;;;;;;;;10665273;27;19915;-78
2022/10/18 20:44:59;;;;;;;;;;;;;;;;;;10679620;27;19938;-77
2022/10/18 20:50:00;;;;;;;;;;;;;;;;;;10668183;27;19914;-78
2022/10/18 20:55:00;;;;;;;;;;;;;;;;;;10684886;27;19922;-77
2022/10/18 21:00:01;;;;;;;;;;;;;;;;;;10680602;27;20398;-77
2022/10/18 21:05:04;;;;;;;;;;;;;;;;;;10650321;27;19923;-77
2022/10/18 21:10:04;;;;;;;;;;;;;;;;;;10658175;27;19919;-78
2022/10/18 21:15:05;;;;;;;;;;;;;;;;;;10673847;27;19919;-78
2022/10/18 21:20:05;;;;;;;;;;;;;;;;;;10656859;27;19925;-78
2022/10/18 21:25:06;;;;;;;;;;;;;;;;;;10663100;27;20342;-77
2022/10/18 21:30:07;;;;;;;;;;;;;;;;;;10674708;27;19982;-78
2022/10/18 21:35:07;;;;;;;;;;;;;;;;;;10653694;27;19922;-77
2022/10/18 21:40:08;;;;;;;;;;;;;;;;;;10672151;27;19931;-77
2022/10/18 21:45:09;;;;;;;;;;;;;;;;;;10692491;27;20401;-76
2022/10/18 21:50:09;;;;;;;;;;;;;;;;;;10690214;27;19942;-77
2022/10/18 21:55:09;;;;;;;;;;;;;;;;;;10673389;27;19964;-78
2022/10/18 22:00:10;;;;;;;;;;;;;;;;;;10646074;27;19919;-77
2022/10/18 22:05:10;;;;;;;;;;;;;;;;;;10664876;27;19923;-75
2022/10/18 22:10:11;;;;;;;;;;;;;;;;;;10652699;27;20263;-77
2022/10/18 22:15:12;;;;;;;;;;;;;;;;;;10657477;27;19915;-77
2022/10/18 22:20:14;;;;;;;;;;;;;;;;;;10618577;27;19927;-77
2022/10/18 22:25:14;;;;;;;;;;;;;;;;;;10662780;27;19931;-78
2022/10/18 22:30:15;;;;;;;;;;;;;;;;;;10652347;27;19923;-78
2022/10/18 22:35:17;;;;;;;;;;;;;;;;;;10663207;27;19920;-77
2022/10/18 22:40:18;;;;;;;;;;;;;;;;;;10662635;27;19923;-76
2022/10/18 22:45:19;;;;;;;;;;;;;;;;;;10659975;27;19927;-77
2022/10/18 22:50:19;;;;;;;;;;;;;;;;;;10646132;27;19919;-76
2022/10/18 22:55:20;;;;;;;;;;;;;;;;;;10623526;27;19929;-76
2022/10/18 23:00:20;;;;;;;;;;;;;;;;;;10661251;27;19999;-76
2022/10/18 23:05:21;;;;;;;;;;;;;;;;;;10651324;27;19929;-77
2022/10/18 23:10:21;;;;;;;;;;;;;;;;;;10674892;27;20368;-75
2022/10/18 23:15:21;;;;;;;;;;;;;;;;;;10651828;27;20025;-74
2022/10/18 23:20:22;;;;;;;;;;;;;;;;;;10668475;27;20392;-75
2022/10/18 23:25:23;;;;;;;;;;;;;;;;;;10678541;27;19927;-75
2022/10/18 23:30:23;;;;;;;;;;;;;;;;;;10665547;27;19926;-75
2022/10/18 23:35:24;;;;;;;;;;;;;;;;;;10674671;27;20255;-75
2022/10/18 23:40:24;;;;;;;;;;;;;;;;;;10660729;27;19998;-76
2022/10/18 23:45:24;;;;;;;;;;;;;;;;;;10656865;27;19927;-76
2022/10/18 23:50:24;;;;;;;;;;;;;;;;;;10670858;27;19915;-76
2022/10/18 23:55:25;;;;;;;;;;;;;;;;;;10654116;27;19919;-76
